createdAt,value
2018-09-15T00:00:47.721Z,101299.94
2018-09-15T00:03:52.117Z,101293.78
2018-09-15T00:06:56.437Z,101297.66
2018-09-15T00:10:00.712Z,101294.11
2018-09-15T00:13:05.023Z,101286.23
2018-09-15T00:16:09.322Z,101294.87
2018-09-15T00:19:13.600Z,101300.09
2018-09-15T00:22:17.876Z,101297.05
2018-09-15T00:25:22.161Z,101312.75
2018-09-15T00:28:26.472Z,101305.82
2018-09-15T00:31:30.752Z,101301.03
2018-09-15T00:34:35.129Z,101303.17
2018-09-15T00:37:39.391Z,101299.22
2018-09-15T00:40:43.757Z,101298.67
2018-09-15T00:43:48.081Z,101293.38
2018-09-15T00:46:52.400Z,101290.69
2018-09-15T00:49:56.684Z,101279.73
2018-09-15T00:53:00.969Z,101288.47
2018-09-15T00:56:05.297Z,101290.17
2018-09-15T00:59:09.592Z,101280.16
2018-09-15T01:02:13.928Z,101283.17
2018-09-15T01:05:18.234Z,101280.45
2018-09-15T01:08:22.553Z,101274.76
2018-09-15T01:11:27.024Z,101267.76
2018-09-15T01:14:31.284Z,101264.28
2018-09-15T01:17:35.613Z,101273.84
2018-09-15T01:20:39.953Z,101267.72
2018-09-15T01:23:44.375Z,101266.41
2018-09-15T01:26:48.691Z,101257.25
2018-09-15T01:29:52.995Z,101260.33
2018-09-15T01:32:57.363Z,101247.28
2018-09-15T01:36:01.645Z,101252.97
2018-09-15T01:39:08.941Z,101258.59
2018-09-15T01:42:13.256Z,101253.33
2018-09-15T01:45:17.604Z,101245.46
2018-09-15T01:48:21.888Z,101254.23
2018-09-15T01:51:26.152Z,101255.46
2018-09-15T01:54:30.402Z,101258.55
2018-09-15T01:57:34.834Z,101262.94
2018-09-15T02:00:39.101Z,101261.20
2018-09-15T02:03:43.409Z,101257.28
2018-09-15T02:06:47.719Z,101262.94
2018-09-15T02:09:51.991Z,101267.76
2018-09-15T02:12:56.280Z,101262.54
2018-09-15T02:16:00.544Z,101255.15
2018-09-15T02:19:04.821Z,101252.97
2018-09-15T02:22:09.133Z,101250.72
2018-09-15T02:25:13.489Z,101246.69
2018-09-15T02:28:17.781Z,101250.05
2018-09-15T02:31:22.277Z,101252.53
2018-09-15T02:34:26.544Z,101254.57
2018-09-15T02:37:30.852Z,101244.88
2018-09-15T02:40:35.171Z,101248.27
2018-09-15T02:43:39.467Z,101242.06
2018-09-15T02:46:43.807Z,101243.70
2018-09-15T02:49:48.099Z,101244.48
2018-09-15T02:52:52.452Z,101247.91
2018-09-15T02:55:56.885Z,101249.11
2018-09-15T02:59:01.202Z,101255.54
2018-09-15T03:02:05.527Z,101253.70
2018-09-15T03:05:09.838Z,101257.14
2018-09-15T03:08:14.274Z,101250.09
2018-09-15T03:11:18.608Z,101257.81
2018-09-15T03:14:22.918Z,101261.22
2018-09-15T03:17:27.240Z,101259.44
2018-09-15T03:20:31.585Z,101259.34
2018-09-15T03:23:35.875Z,101262.33
2018-09-15T03:26:40.202Z,101267.09
2018-09-15T03:29:44.468Z,101269.27
2018-09-15T03:32:48.732Z,101265.85
2018-09-15T03:35:53.056Z,101264.22
2018-09-15T03:38:57.386Z,101271.70
2018-09-15T03:42:01.736Z,101269.19
2018-09-15T03:45:06.045Z,101271.89
2018-09-15T03:48:10.308Z,101268.03
2018-09-15T03:51:14.569Z,101284.20
2018-09-15T03:54:20.564Z,101273.02
2018-09-15T03:57:24.840Z,101265.28
2018-09-15T04:00:29.189Z,101266.20
2018-09-15T04:03:33.464Z,101267.51
2018-09-15T04:06:37.813Z,101261.33
2018-09-15T04:09:42.133Z,101258.72
2018-09-15T04:12:47.035Z,101257.89
2018-09-15T04:15:51.473Z,101266.63
2018-09-15T04:18:55.829Z,101267.51
2018-09-15T04:22:00.251Z,101269.67
2018-09-15T04:25:04.537Z,101270.45
2018-09-15T04:28:08.886Z,101280.83
2018-09-15T04:31:13.183Z,101285.55
2018-09-15T04:34:17.520Z,101274.31
2018-09-15T04:37:21.849Z,101276.96
2018-09-15T04:40:26.219Z,101282.99
2018-09-15T04:43:30.493Z,101289.32
2018-09-15T04:46:34.837Z,101290.13
2018-09-15T04:49:39.145Z,101288.14
2018-09-15T04:52:43.518Z,101291.09
2018-09-15T04:55:47.675Z,101294.89
2018-09-15T04:58:52.049Z,101293.92
2018-09-15T05:01:56.330Z,101298.69
2018-09-15T05:05:00.616Z,101309.43
2018-09-15T05:08:04.961Z,101314.98
2018-09-15T05:11:09.308Z,101317.09
2018-09-15T05:14:13.737Z,101314.00
2018-09-15T05:17:18.023Z,101313.61
2018-09-15T05:20:22.324Z,101326.20
2018-09-15T05:23:26.674Z,101323.59
2018-09-15T05:26:30.990Z,101330.09
2018-09-15T05:29:35.341Z,101330.11
2018-09-15T05:32:39.644Z,101340.62
2018-09-15T05:35:43.980Z,101340.25
2018-09-15T05:38:48.246Z,101342.25
2018-09-15T05:41:52.513Z,101344.70
2018-09-15T05:44:56.823Z,101352.84
2018-09-15T05:48:01.080Z,101357.04
2018-09-15T05:51:05.359Z,101349.03
2018-09-15T05:54:09.617Z,101359.66
2018-09-15T05:57:13.899Z,101361.59
2018-09-15T06:00:18.257Z,101358.69
2018-09-15T06:03:22.537Z,101363.47
2018-09-15T06:06:26.876Z,101375.59
2018-09-15T06:09:31.194Z,101383.36
2018-09-15T06:12:35.507Z,101389.02
2018-09-15T06:15:39.817Z,101386.50
2018-09-15T06:18:44.324Z,101379.64
2018-09-15T06:21:48.539Z,101381.38
2018-09-15T06:24:52.896Z,101384.95
2018-09-15T06:27:57.256Z,101390.30
2018-09-15T06:31:01.656Z,101393.88
2018-09-15T06:34:06.004Z,101395.75
2018-09-15T06:37:10.268Z,101396.70
2018-09-15T06:40:14.624Z,101412.31
2018-09-15T06:43:19.032Z,101411.80
2018-09-15T06:46:23.364Z,101421.45
2018-09-15T06:49:27.811Z,101417.14
2018-09-15T06:52:32.092Z,101425.50
2018-09-15T06:55:36.430Z,101418.28
2018-09-15T06:58:40.790Z,101428.86
2018-09-15T07:01:45.076Z,101434.20
2018-09-15T07:04:49.385Z,101439.11
2018-09-15T07:07:53.688Z,101438.28
2018-09-15T07:10:58.027Z,101453.95
2018-09-15T07:14:02.448Z,101456.91
2018-09-15T07:17:06.718Z,101463.92
2018-09-15T07:20:11.042Z,101466.48
2018-09-15T07:23:15.287Z,101464.84
2018-09-15T07:26:19.649Z,101464.88
2018-09-15T07:29:23.995Z,101444.11
2018-09-15T07:32:28.257Z,101445.49
2018-09-15T07:35:32.638Z,101449.50
2018-09-15T07:38:36.962Z,101443.16
2018-09-15T07:41:41.615Z,101444.94
2018-09-15T07:44:45.957Z,101459.19
2018-09-15T07:47:50.305Z,101462.99
2018-09-15T07:50:54.629Z,101466.67
2018-09-15T07:53:58.919Z,101462.88
2018-09-15T07:57:03.300Z,101461.79
2018-09-15T08:00:07.622Z,101469.48
2018-09-15T08:03:12.045Z,101464.58
2018-09-15T08:06:16.612Z,101467.39
2018-09-15T08:09:20.986Z,101474.67
2018-09-15T08:12:25.244Z,101478.87
2018-09-15T08:15:29.629Z,101483.73
2018-09-15T08:18:34.082Z,101493.02
2018-09-15T08:21:38.374Z,101498.84
2018-09-15T08:24:42.704Z,101495.56
2018-09-15T08:27:47.011Z,101500.08
2018-09-15T08:30:51.345Z,101501.05
2018-09-15T08:33:55.745Z,101497.16
2018-09-15T08:37:00.044Z,101502.88
2018-09-15T08:40:04.432Z,101503.83
2018-09-15T08:43:08.740Z,101517.42
2018-09-15T08:46:13.038Z,101527.95
2018-09-15T08:49:17.372Z,101528.05
2018-09-15T08:52:22.268Z,101531.20
2018-09-15T08:55:26.609Z,101530.82
2018-09-15T08:58:30.868Z,101527.84
2018-09-15T09:01:35.178Z,101534.01
2018-09-15T09:04:39.562Z,101538.53
2018-09-15T09:07:43.927Z,101540.29
2018-09-15T09:10:48.226Z,101532.91
2018-09-15T09:13:52.506Z,101536.96
2018-09-15T09:16:56.885Z,101540.97
2018-09-15T09:20:01.320Z,101540.59
2018-09-15T09:23:05.604Z,101542.41
2018-09-15T09:26:09.964Z,101548.73
2018-09-15T09:29:14.267Z,101534.34
2018-09-15T09:32:18.549Z,101550.99
2018-09-15T09:35:22.898Z,101563.64
2018-09-15T09:38:27.265Z,101567.73
2018-09-15T09:41:31.652Z,101569.55
2018-09-15T09:44:35.985Z,101577.16
2018-09-15T09:47:40.279Z,101573.26
2018-09-15T09:50:44.606Z,101578.16
2018-09-15T09:53:48.928Z,101574.73
2018-09-15T09:56:53.263Z,101580.03
2018-09-15T09:59:57.580Z,101574.55
2018-09-15T10:03:01.857Z,101573.08
2018-09-15T10:06:06.256Z,101571.95
2018-09-15T10:09:11.521Z,101570.30
2018-09-15T10:12:15.837Z,101575.09
2018-09-15T10:15:20.252Z,101576.70
2018-09-15T10:18:24.557Z,101581.96
2018-09-15T10:21:28.985Z,101581.70
2018-09-15T10:24:33.472Z,101588.11
2018-09-15T10:27:37.803Z,101588.52
2018-09-15T10:30:42.144Z,101589.03
2018-09-15T10:33:46.425Z,101590.86
2018-09-15T10:36:50.915Z,101592.79
2018-09-15T10:39:55.192Z,101590.31
2018-09-15T10:42:59.519Z,101602.61
2018-09-15T10:46:03.899Z,101604.78
2018-09-15T10:49:08.247Z,101607.47
2018-09-15T10:52:12.704Z,101613.59
2018-09-15T10:55:17.025Z,101619.59
2018-09-15T10:58:21.556Z,101621.24
2018-09-15T11:01:25.954Z,101627.85
2018-09-15T11:04:30.265Z,101632.58
2018-09-15T11:07:34.684Z,101634.53
2018-09-15T11:10:39.000Z,101644.54
2018-09-15T11:13:43.394Z,101646.62
2018-09-15T11:16:47.637Z,101650.87
2018-09-15T11:19:51.976Z,101649.11
2018-09-15T11:22:56.311Z,101649.97
2018-09-15T11:26:00.577Z,101646.44
2018-09-15T11:29:04.792Z,101653.64
2018-09-15T11:32:09.174Z,101649.39
2018-09-15T11:35:13.706Z,101642.48
2018-09-15T11:38:18.043Z,101648.69
2018-09-15T11:41:22.453Z,101646.06
2018-09-15T11:44:26.758Z,101655.94
2018-09-15T11:47:31.230Z,101661.05
2018-09-15T11:50:35.621Z,101657.11
2018-09-15T11:53:39.961Z,101654.08
2018-09-15T11:56:44.373Z,101651.47
2018-09-15T11:59:48.692Z,101650.18
2018-09-15T12:02:53.053Z,101650.70
2018-09-15T12:05:57.621Z,101655.26
2018-09-15T12:09:02.001Z,101664.42
2018-09-15T12:12:06.343Z,101668.72
2018-09-15T12:15:10.706Z,101673.57
2018-09-15T12:18:15.145Z,101673.63
2018-09-15T12:21:20.248Z,101675.48
2018-09-15T12:24:24.592Z,101679.44
2018-09-15T12:27:28.911Z,101687.78
2018-09-15T12:30:33.317Z,101688.80
2018-09-15T12:33:37.661Z,101681.00
2018-09-15T12:36:42.469Z,101684.88
2018-09-15T12:39:46.822Z,101684.09
2018-09-15T12:42:51.154Z,101692.91
2018-09-15T12:45:55.536Z,101684.59
2018-09-15T12:48:59.888Z,101689.91
2018-09-15T12:52:04.233Z,101692.42
2018-09-15T12:55:08.611Z,101684.11
2018-09-15T12:58:12.895Z,101693.73
2018-09-15T13:01:17.230Z,101697.13
2018-09-15T13:04:21.473Z,101700.99
2018-09-15T13:07:25.784Z,101700.97
2018-09-15T13:10:30.107Z,101708.77
2018-09-15T13:13:34.421Z,101715.70
2018-09-15T13:16:38.904Z,101721.67
2018-09-15T13:19:43.301Z,101721.59
2018-09-15T13:22:47.619Z,101720.98
2018-09-15T13:25:51.946Z,101723.06
2018-09-15T13:28:56.612Z,101731.80
2018-09-15T13:32:00.979Z,101734.76
2018-09-15T13:35:05.289Z,101736.86
2018-09-15T13:38:10.517Z,101744.28
2018-09-15T13:41:15.741Z,101750.81
2018-09-15T13:44:21.071Z,101752.59
2018-09-15T13:47:25.397Z,101753.34
2018-09-15T13:50:29.756Z,101763.33
2018-09-15T13:53:34.127Z,101753.16
2018-09-15T13:56:38.475Z,101752.22
2018-09-15T13:59:42.826Z,101747.01
2018-09-15T14:02:47.103Z,101750.44
2018-09-15T14:05:51.360Z,101755.55
2018-09-15T14:08:55.709Z,101751.61
2018-09-15T14:12:00.113Z,101754.17
2018-09-15T14:15:04.489Z,101760.24
2018-09-15T14:18:08.875Z,101761.55
2018-09-15T14:21:13.172Z,101768.94
2018-09-15T14:24:17.624Z,101768.07
2018-09-15T14:27:21.878Z,101774.69
2018-09-15T14:30:26.173Z,101772.87
2018-09-15T14:33:30.552Z,101774.11
2018-09-15T14:36:34.879Z,101772.69
2018-09-15T14:39:39.226Z,101773.48
2018-09-15T14:42:43.629Z,101771.34
2018-09-15T14:45:47.984Z,101773.49
2018-09-15T14:48:52.389Z,101777.78
2018-09-15T14:51:56.767Z,101783.34
2018-09-15T14:55:01.190Z,101785.95
2018-09-15T14:58:05.539Z,101791.16
2018-09-15T15:01:09.893Z,101791.52
2018-09-15T15:04:14.325Z,101794.56
2018-09-15T15:07:18.645Z,101801.94
2018-09-15T15:10:23.648Z,101796.70
2018-09-15T15:13:28.018Z,101809.31
2018-09-15T15:16:32.426Z,101809.66
2018-09-15T15:19:36.784Z,101808.71
2018-09-15T15:22:41.130Z,101806.53
2018-09-15T15:25:45.577Z,101805.27
2018-09-15T15:28:49.894Z,101802.56
2018-09-15T15:31:54.214Z,101793.80
2018-09-15T15:34:58.515Z,101791.17
2018-09-15T15:38:02.977Z,101791.13
2018-09-15T15:41:07.489Z,101793.67
2018-09-15T15:44:11.813Z,101789.30
2018-09-15T15:47:16.127Z,101791.88
2018-09-15T15:50:20.493Z,101790.05
2018-09-15T15:53:24.781Z,101788.21
2018-09-15T15:56:29.246Z,101778.58
2018-09-15T15:59:33.783Z,101778.14
2018-09-15T16:02:38.166Z,101768.94
2018-09-15T16:05:42.424Z,101774.03
2018-09-15T16:08:46.725Z,101783.58
2018-09-15T16:11:51.050Z,101785.28
2018-09-15T16:14:55.347Z,101793.95
2018-09-15T16:17:59.736Z,101796.14
2018-09-15T16:21:04.085Z,101789.59
2018-09-15T16:24:08.392Z,101789.11
2018-09-15T16:27:12.746Z,101793.52
2018-09-15T16:30:17.080Z,101793.09
2018-09-15T16:33:21.484Z,101795.70
2018-09-15T16:36:25.890Z,101798.31
2018-09-15T16:39:30.308Z,101793.52
2018-09-15T16:42:34.706Z,101798.66
2018-09-15T16:45:39.107Z,101800.41
2018-09-15T16:48:43.401Z,101802.33
2018-09-15T16:51:47.719Z,101800.25
2018-09-15T16:54:52.026Z,101800.29
2018-09-15T16:57:56.350Z,101803.50
2018-09-15T17:01:00.681Z,101811.16
2018-09-15T17:04:05.110Z,101816.14
2018-09-15T17:07:09.374Z,101816.67
2018-09-15T17:10:13.760Z,101825.05
2018-09-15T17:13:18.024Z,101829.58
2018-09-15T17:16:22.378Z,101835.55
2018-09-15T17:19:26.817Z,101848.77
2018-09-15T17:22:31.195Z,101844.17
2018-09-15T17:25:35.411Z,101849.16
2018-09-15T17:28:40.716Z,101848.05
2018-09-15T17:31:45.084Z,101852.64
2018-09-15T17:34:49.434Z,101854.15
2018-09-15T17:37:53.988Z,101857.89
2018-09-15T17:40:58.293Z,101862.97
2018-09-15T17:44:02.713Z,101868.12
2018-09-15T17:47:07.818Z,101871.10
2018-09-15T17:50:12.155Z,101874.95
2018-09-15T17:53:16.666Z,101876.14
2018-09-15T17:56:20.947Z,101875.56
2018-09-15T17:59:25.311Z,101874.06
2018-09-15T18:02:29.624Z,101874.73
2018-09-15T18:05:33.973Z,101875.43
2018-09-15T18:08:38.312Z,101886.98
2018-09-15T18:11:42.570Z,101883.84
2018-09-15T18:14:47.042Z,101894.08
2018-09-15T18:17:51.487Z,101894.37
2018-09-15T18:20:55.872Z,101902.95
2018-09-15T18:24:00.207Z,101905.42
2018-09-15T18:27:04.572Z,101905.28
2018-09-15T18:30:08.981Z,101907.81
2018-09-15T18:33:13.373Z,101909.84
2018-09-15T18:36:17.813Z,101908.37
2018-09-15T18:39:22.170Z,101907.80
2018-09-15T18:42:26.598Z,101915.97
2018-09-15T18:45:31.001Z,101911.45
2018-09-15T18:48:35.300Z,101923.45
2018-09-15T18:51:39.645Z,101919.83
2018-09-15T18:54:44.213Z,101913.59
2018-09-15T18:57:48.592Z,101918.16
2018-09-15T19:00:53.040Z,101926.19
2018-09-15T19:03:57.459Z,101928.64
2018-09-15T19:07:01.906Z,101936.20
2018-09-15T19:10:06.287Z,101926.91
2018-09-15T19:13:11.206Z,101927.89
2018-09-15T19:16:15.661Z,101940.75
2018-09-15T19:19:20.035Z,101947.16
2018-09-15T19:22:24.744Z,101949.66
2018-09-15T19:25:29.266Z,101951.66
2018-09-15T19:28:33.718Z,101955.81
2018-09-15T19:31:38.081Z,101959.59
2018-09-15T19:34:42.519Z,101961.63
2018-09-15T19:37:47.035Z,101960.59
2018-09-15T19:40:51.528Z,101964.75
2018-09-15T19:43:56.165Z,101966.82
2018-09-15T19:47:00.632Z,101973.75
2018-09-15T19:50:05.155Z,101970.76
2018-09-15T19:53:09.587Z,101977.23
2018-09-15T19:56:13.970Z,101971.02
2018-09-15T19:59:18.494Z,101973.05
2018-09-15T20:02:22.825Z,101967.61
2018-09-15T20:05:27.340Z,101970.11
2018-09-15T20:08:31.784Z,101973.98
2018-09-15T20:11:36.182Z,101977.91
2018-09-15T20:14:40.572Z,101985.19
2018-09-15T20:17:43.320Z,101982.30
2018-09-15T20:20:46.154Z,101978.48
2018-09-15T20:23:50.882Z,101978.20
2018-09-15T20:26:55.335Z,101976.68
2018-09-15T20:29:59.798Z,101978.68
2018-09-15T20:33:04.305Z,101979.87
2018-09-15T20:36:08.636Z,101980.71
2018-09-15T20:39:13.510Z,101978.81
2018-09-15T20:42:17.889Z,101985.83
2018-09-15T20:45:22.319Z,101982.81
2018-09-15T20:48:26.709Z,101997.48
2018-09-15T20:51:32.076Z,101995.70
2018-09-15T20:54:36.501Z,101997.88
2018-09-15T20:57:40.801Z,101997.73
2018-09-15T21:00:45.088Z,101991.58
2018-09-15T21:03:49.444Z,101998.06
2018-09-15T21:06:53.851Z,101999.14
2018-09-15T21:09:58.501Z,102004.57
2018-09-15T21:13:02.813Z,102000.48
2018-09-15T21:16:07.609Z,101999.95
2018-09-15T21:19:12.093Z,101999.08
2018-09-15T21:22:16.391Z,101997.36
2018-09-15T21:25:20.741Z,102003.36
2018-09-15T21:28:25.061Z,102005.61
2018-09-15T21:31:29.363Z,102010.00
2018-09-15T21:34:33.722Z,102020.25
2018-09-15T21:37:38.031Z,102014.14
2018-09-15T21:40:42.393Z,102018.92
2018-09-15T21:43:46.748Z,102025.56
2018-09-15T21:46:51.091Z,102022.58
2018-09-15T21:49:55.373Z,102031.13
2018-09-15T21:52:59.704Z,102031.84
2018-09-15T21:56:05.010Z,102034.16
2018-09-15T21:59:09.285Z,102035.00
2018-09-15T22:02:13.749Z,102036.98
2018-09-15T22:05:18.055Z,102035.52
2018-09-15T22:08:22.374Z,102032.72
2018-09-15T22:11:26.688Z,102030.80
2018-09-15T22:14:30.988Z,102029.84
2018-09-15T22:17:35.281Z,102041.89
2018-09-15T22:20:39.623Z,102034.03
2018-09-15T22:23:43.961Z,102036.17
2018-09-15T22:26:48.274Z,102031.58
2018-09-15T22:29:52.542Z,102037.52
2018-09-15T22:32:56.824Z,102032.75
2018-09-15T22:36:01.092Z,102026.80
2018-09-15T22:39:07.710Z,102031.11
2018-09-15T22:42:12.052Z,102029.27
2018-09-15T22:45:16.326Z,102034.55
2018-09-15T22:48:20.721Z,102038.06
2018-09-15T22:51:25.628Z,102040.81
2018-09-15T22:54:29.916Z,102038.39
2018-09-15T22:57:34.511Z,102042.16
2018-09-15T23:00:38.911Z,102042.91
2018-09-15T23:03:43.194Z,102041.49
2018-09-15T23:06:47.448Z,102040.07
2018-09-15T23:09:51.741Z,102034.26
2018-09-15T23:12:56.004Z,102029.06
2018-09-15T23:16:00.413Z,102032.08
2018-09-15T23:19:05.282Z,102032.00
2018-09-15T23:22:09.585Z,102029.78
2018-09-15T23:25:13.866Z,102029.02
2018-09-15T23:28:18.174Z,102029.41
2018-09-15T23:31:22.533Z,102030.24
2018-09-15T23:34:26.797Z,102027.98
2018-09-15T23:37:31.164Z,102030.91
2018-09-15T23:40:35.441Z,102026.90
2018-09-15T23:43:40.150Z,102025.14
2018-09-15T23:46:45.234Z,102021.59
2018-09-15T23:49:49.551Z,102026.09
2018-09-15T23:52:53.827Z,102024.09
2018-09-15T23:55:58.113Z,102021.16
2018-09-15T23:59:02.430Z,102015.97
